Time;durP1;ratioP1;P1;durP2;ratioP2;P2;SDS_P1;SDS_P2;PMS_P1;PMS_P2;Temp;Humidity;BMP_temperature;BMP_pressure;BME280_temperature;BME280_humidity;BME280_pressure;Samples;Min_cycle;Max_cycle;Signal;HPM_P1;HPM_P2
2022/05/22 00:00:25;;;;;;;18.30;6.70;;;11.00;93.30;;;;;;5032473;28;20025;-46
2022/05/22 00:02:51;;;;;;;12.90;6.05;;;10.90;93.40;;;;;;5032442;28;20052;-46
2022/05/22 00:05:20;;;;;;;12.60;6.28;;;10.90;93.60;;;;;;5043825;28;20112;-41
2022/05/22 00:07:46;;;;;;;12.80;6.03;;;10.90;93.60;;;;;;5052210;28;20017;-47
2022/05/22 00:10:12;;;;;;;11.75;5.82;;;10.80;93.70;;;;;;5052132;28;20035;-52
2022/05/22 00:12:40;;;;;;;17.45;6.28;;;10.80;93.60;;;;;;5052086;28;20021;-45
2022/05/22 00:15:06;;;;;;;18.13;6.82;;;10.80;93.50;;;;;;5052065;28;20086;-44
2022/05/22 00:17:32;;;;;;;13.50;6.13;;;10.80;93.70;;;;;;5051579;28;20025;-45
2022/05/22 00:19:58;;;;;;;13.27;6.18;;;10.80;93.70;;;;;;5050972;28;20082;-44
2022/05/22 00:22:23;;;;;;;13.73;6.25;;;10.80;93.50;;;;;;5051739;28;20502;-49
2022/05/22 00:24:49;;;;;;;10.80;5.57;;;10.80;93.60;;;;;;5051773;28;20029;-47
2022/05/22 00:27:15;;;;;;;11.38;5.68;;;10.80;93.60;;;;;;5051610;28;20032;-47
2022/05/22 00:29:41;;;;;;;16.23;6.05;;;10.80;93.60;;;;;;5051652;28;20025;-44
2022/05/22 00:32:08;;;;;;;16.40;6.65;;;10.80;93.80;;;;;;5051567;28;20492;-44
2022/05/22 00:34:34;;;;;;;14.73;5.95;;;10.90;93.80;;;;;;5045779;28;20034;-49
2022/05/22 00:36:59;;;;;;;15.95;6.57;;;10.90;93.70;;;;;;5031799;28;20029;-45
2022/05/22 00:39:25;;;;;;;11.65;5.20;;;11.00;93.60;;;;;;5030462;28;20076;-46
2022/05/22 00:41:57;;;;;;;11.98;5.38;;;11.00;93.60;;;;;;5031646;28;20033;-48
2022/05/22 00:44:23;;;;;;;12.15;5.93;;;11.00;93.50;;;;;;5031473;28;20025;-45
2022/05/22 00:46:49;;;;;;;16.30;5.68;;;11.00;93.30;;;;;;5031579;28;20068;-56
2022/05/22 00:49:22;;;;;;;14.32;5.40;;;11.00;93.30;;;;;;5031411;28;20051;-47
2022/05/22 00:51:55;;;;;;;10.80;4.97;;;11.00;93.40;;;;;;5031489;28;20394;-46
2022/05/22 00:54:28;;;;;;;10.95;5.35;;;11.00;93.00;;;;;;5031516;28;20029;-44
2022/05/22 00:57:00;;;;;;;12.80;5.15;;;11.00;93.00;;;;;;5031395;28;20418;-52
2022/05/22 00:59:33;;;;;;;11.20;5.30;;;10.90;92.50;;;;;;5031364;28;20025;-50
2022/05/22 01:01:59;;;;;;;11.85;5.15;;;10.90;92.60;;;;;;5031193;28;20393;-48
2022/05/22 01:04:29;;;;;;;14.55;4.72;;;10.80;92.50;;;;;;5038187;28;20021;-47
2022/05/22 01:06:54;;;;;;;8.95;4.70;;;10.80;92.70;;;;;;5051157;28;20094;-50
2022/05/22 01:09:21;;;;;;;8.18;4.50;;;10.80;92.80;;;;;;5051091;28;20028;-45
2022/05/22 01:11:52;;;;;;;10.02;4.78;;;10.80;92.90;;;;;;5051054;28;20513;-47
2022/05/22 01:14:22;;;;;;;9.38;4.47;;;10.80;93.10;;;;;;5050903;28;20021;-50
2022/05/22 01:16:50;;;;;;;10.63;4.88;;;10.80;93.50;;;;;;5050956;28;20017;-53
2022/05/22 01:19:23;;;;;;;11.38;4.95;;;10.80;93.50;;;;;;5051002;28;20017;-48
2022/05/22 01:21:54;;;;;;;10.55;4.50;;;10.80;93.50;;;;;;5050910;28;20029;-50
2022/05/22 01:24:19;;;;;;;9.00;4.53;;;10.80;93.50;;;;;;5050966;28;20029;-48
2022/05/22 01:26:47;;;;;;;11.98;5.32;;;10.80;93.30;;;;;;5050783;28;20402;-45
2022/05/22 01:29:12;;;;;;;12.95;4.45;;;10.80;93.40;;;;;;5049702;28;20029;-50
2022/05/22 01:31:38;;;;;;;7.70;4.20;;;10.80;93.40;;;;;;5054773;28;20430;-54
2022/05/22 01:34:04;;;;;;;11.18;4.55;;;10.80;93.30;;;;;;5053761;28;20067;-45
2022/05/22 01:36:30;;;;;;;11.85;4.43;;;10.80;93.10;;;;;;5054794;28;20056;-45
2022/05/22 01:38:55;;;;;;;9.10;4.20;;;10.80;93.10;;;;;;5055048;28;20021;-47
2022/05/22 01:41:21;;;;;;;9.77;4.38;;;10.80;93.00;;;;;;5054810;28;20649;-49
2022/05/22 01:43:47;;;;;;;14.45;4.43;;;10.80;93.20;;;;;;5020281;28;20100;-44
2022/05/22 01:46:12;;;;;;;9.98;4.20;;;10.70;93.20;;;;;;5014721;28;20080;-41
2022/05/22 01:48:38;;;;;;;9.32;4.45;;;10.60;93.00;;;;;;5014714;28;20125;-38
2022/05/22 01:51:04;;;;;;;8.25;3.97;;;10.70;93.10;;;;;;5015007;28;20398;-40
2022/05/22 01:53:30;;;;;;;7.60;4.20;;;10.60;93.10;;;;;;5014973;28;20099;-42
2022/05/22 01:55:56;;;;;;;6.90;3.97;;;10.50;93.20;;;;;;5014688;28;20418;-38
2022/05/22 01:58:22;;;;;;;8.35;4.60;;;10.50;93.10;;;;;;5014673;28;20079;-39
2022/05/22 02:00:47;;;;;;;10.25;4.25;;;10.40;93.30;;;;;;5029777;28;20022;-44
2022/05/22 02:03:13;;;;;;;8.68;4.22;;;10.40;93.70;;;;;;5014534;28;20026;-39
2022/05/22 02:05:40;;;;;;;11.57;4.72;;;10.30;93.60;;;;;;5034425;28;20044;-39
2022/05/22 02:08:24;;;;;;;8.90;4.47;;;10.30;93.70;;;;;;5041724;28;20084;-50
2022/05/22 02:10:56;;;;;;;11.35;5.55;;;10.40;93.90;;;;;;5034108;28;20048;-48
2022/05/22 02:13:25;;;;;;;13.10;5.72;;;10.40;94.00;;;;;;5048646;28;20524;-41
2022/05/22 02:15:52;;;;;;;14.10;4.47;;;10.30;94.10;;;;;;5054149;28;20029;-46
2022/05/22 02:18:17;;;;;;;6.93;4.18;;;10.30;94.00;;;;;;5052185;28;20537;-45
2022/05/22 02:20:43;;;;;;;8.60;3.90;;;10.30;93.90;;;;;;5053995;28;20162;-48
2022/05/22 02:23:09;;;;;;;8.25;4.40;;;10.30;93.70;;;;;;5039617;28;20021;-44
2022/05/22 02:25:38;;;;;;;10.57;3.88;;;10.30;93.60;;;;;;5034050;28;20064;-41
2022/05/22 02:28:06;;;;;;;8.65;4.65;;;10.30;93.40;;;;;;5045025;28;20017;-50
2022/05/22 02:30:37;;;;;;;10.82;3.78;;;10.30;93.60;;;;;;5053663;28;20466;-44
2022/05/22 02:33:04;;;;;;;11.07;4.35;;;10.30;93.60;;;;;;5041459;28;20030;-45
2022/05/22 02:35:30;;;;;;;10.93;4.30;;;10.20;93.50;;;;;;5033780;28;20045;-41
2022/05/22 02:37:58;;;;;;;8.20;3.60;;;10.20;93.40;;;;;;5042887;28;20112;-43
2022/05/22 02:40:26;;;;;;;10.10;4.32;;;10.20;93.60;;;;;;5053582;28;20036;-40
2022/05/22 02:42:53;;;;;;;8.93;4.13;;;10.10;93.60;;;;;;5042450;28;20114;-49
2022/05/22 02:45:22;;;;;;;9.80;4.07;;;10.10;93.60;;;;;;5033711;28;20467;-54
2022/05/22 02:47:48;;;;;;;8.68;3.97;;;10.10;93.60;;;;;;5033555;28;20395;-44
2022/05/22 02:50:16;;;;;;;9.18;4.03;;;10.00;93.50;;;;;;5033758;28;20041;-41
2022/05/22 02:52:42;;;;;;;10.15;4.07;;;9.90;93.60;;;;;;5033698;28;20763;-50
2022/05/22 02:55:08;;;;;;;9.73;4.20;;;10.00;93.80;;;;;;5033699;28;20108;-41
2022/05/22 02:57:36;;;;;;;9.38;4.00;;;10.00;93.80;;;;;;5033715;28;20037;-43
2022/05/22 03:00:05;;;;;;;7.93;4.22;;;10.00;93.80;;;;;;5033670;28;20030;-48
2022/05/22 03:02:31;;;;;;;10.85;4.13;;;10.00;93.80;;;;;;5033646;28;20022;-45
2022/05/22 03:04:56;;;;;;;7.63;3.60;;;9.90;93.70;;;;;;5032100;28;20067;-48
2022/05/22 03:07:22;;;;;;;8.82;3.90;;;9.90;94.10;;;;;;5041268;28;20358;-45
2022/05/22 03:09:48;;;;;;;10.52;4.10;;;9.90;93.70;;;;;;5053090;28;20057;-50
2022/05/22 03:12:17;;;;;;;10.88;4.45;;;9.90;93.90;;;;;;5053302;28;20377;-47
2022/05/22 03:14:54;;;;;;;8.05;3.78;;;9.90;93.90;;;;;;5053219;28;20028;-49
2022/05/22 03:17:21;;;;;;;9.75;4.20;;;9.90;93.70;;;;;;5052802;28;20017;-41
2022/05/22 03:19:47;;;;;;;8.77;4.07;;;9.90;93.90;;;;;;5052909;28;20033;-47
2022/05/22 03:22:12;;;;;;;10.30;4.80;;;9.80;94.00;;;;;;5052981;28;20537;-40
2022/05/22 03:24:39;;;;;;;9.25;4.40;;;9.80;94.10;;;;;;5052630;28;20100;-47
2022/05/22 03:27:11;;;;;;;10.45;4.30;;;9.80;94.10;;;;;;5052787;28;20036;-48
2022/05/22 03:29:41;;;;;;;13.63;4.45;;;9.70;93.70;;;;;;5052779;28;20477;-43
2022/05/22 03:32:07;;;;;;;7.05;3.28;;;9.70;93.80;;;;;;5052720;28;20037;-46
2022/05/22 03:34:34;;;;;;;8.95;3.75;;;9.60;93.90;;;;;;5052727;28;20481;-43
2022/05/22 03:37:00;;;;;;;9.85;3.50;;;9.60;93.70;;;;;;5048270;28;20466;-49
2022/05/22 03:39:27;;;;;;;9.27;3.88;;;9.70;93.70;;;;;;5032676;28;20037;-46
2022/05/22 03:41:52;;;;;;;10.02;3.90;;;9.70;93.80;;;;;;5031223;28;20025;-46
2022/05/22 03:44:18;;;;;;;7.68;3.67;;;9.70;94.10;;;;;;5032549;28;20539;-44
2022/05/22 03:46:44;;;;;;;7.93;3.92;;;9.70;93.90;;;;;;5032335;28;20053;-42
2022/05/22 03:49:10;;;;;;;7.22;3.30;;;9.70;94.00;;;;;;5032473;28;20050;-48
2022/05/22 03:51:37;;;;;;;7.15;3.33;;;9.70;94.00;;;;;;5032394;28;20028;-46
2022/05/22 03:54:02;;;;;;;6.35;3.20;;;9.70;94.20;;;;;;5032151;28;20390;-45
2022/05/22 03:56:28;;;;;;;8.75;4.00;;;9.80;94.60;;;;;;5032371;28;20026;-51
2022/05/22 03:58:54;;;;;;;9.25;3.72;;;9.80;94.70;;;;;;5032259;28;20048;-41
2022/05/22 04:01:20;;;;;;;6.07;3.50;;;9.90;94.60;;;;;;5032411;28;20065;-43
2022/05/22 04:03:45;;;;;;;8.80;3.65;;;9.90;94.40;;;;;;5032226;28;20026;-45
2022/05/22 04:06:12;;;;;;;7.30;3.60;;;9.90;94.40;;;;;;5032153;28;20399;-48
2022/05/22 04:08:38;;;;;;;6.15;3.28;;;10.00;94.50;;;;;;5048923;28;20473;-40
2022/05/22 04:11:12;;;;;;;11.05;3.80;;;10.00;94.40;;;;;;5052177;28;20025;-44
2022/05/22 04:13:39;;;;;;;6.15;3.40;;;10.00;94.40;;;;;;5052222;28;20547;-48
2022/05/22 04:16:05;;;;;;;8.70;3.55;;;10.00;93.80;;;;;;5052266;28;20061;-41
2022/05/22 04:18:32;;;;;;;6.38;2.90;;;10.00;93.40;;;;;;5051951;28;20064;-52
2022/05/22 04:20:57;;;;;;;8.98;3.72;;;10.00;93.70;;;;;;5052145;28;20025;-40
2022/05/22 04:26:07;;;;;;;8.02;3.03;;;10.10;93.40;;;;;;5051570;28;20416;-41
2022/05/22 04:28:34;;;;;;;5.47;3.10;;;10.10;93.70;;;;;;5051782;28;20561;-47
2022/05/22 04:31:02;;;;;;;7.32;3.22;;;10.10;93.90;;;;;;5051847;28;20106;-50
2022/05/22 04:33:27;;;;;;;7.13;3.47;;;10.10;93.80;;;;;;5051519;28;20552;-47
2022/05/22 04:35:53;;;;;;;8.00;3.53;;;10.20;93.90;;;;;;5051477;28;20105;-46
2022/05/22 04:38:19;;;;;;;7.13;3.55;;;10.20;93.90;;;;;;5048787;28;20029;-42
2022/05/22 04:40:54;;;;;;;6.60;3.53;;;10.20;94.20;;;;;;5051424;28;20029;-44
2022/05/22 04:43:20;;;;;;;7.38;3.50;;;10.20;94.60;;;;;;5051584;28;20036;-41
2022/05/22 04:45:46;;;;;;;9.07;3.95;;;10.20;94.50;;;;;;5051349;28;20033;-50
2022/05/22 04:48:11;;;;;;;8.23;3.63;;;10.30;94.60;;;;;;5051312;28;20098;-42
2022/05/22 04:50:37;;;;;;;9.20;3.85;;;10.30;94.50;;;;;;5051326;28;20032;-47
2022/05/22 04:53:03;;;;;;;10.77;4.13;;;10.30;94.00;;;;;;5051284;28;20159;-43
2022/05/22 04:55:28;;;;;;;9.25;4.78;;;10.40;94.40;;;;;;5051425;28;20493;-43
2022/05/22 04:57:54;;;;;;;10.30;4.40;;;10.40;94.40;;;;;;5050239;28;20029;-50
2022/05/22 05:00:20;;;;;;;10.15;4.57;;;10.30;94.20;;;;;;5051381;28;20029;-40
2022/05/22 05:02:46;;;;;;;11.13;4.75;;;10.40;94.20;;;;;;5051257;28;20025;-41
2022/05/22 05:05:11;;;;;;;10.10;5.10;;;10.40;94.30;;;;;;5050734;28;20029;-40
2022/05/22 05:07:38;;;;;;;9.32;4.85;;;10.50;94.20;;;;;;5050844;28;20104;-38
2022/05/22 05:10:05;;;;;;;10.10;4.45;;;10.50;94.20;;;;;;5051231;28;20021;-41
2022/05/22 05:12:36;;;;;;;14.88;4.75;;;10.60;94.20;;;;;;5049877;28;20083;-40
2022/05/22 05:15:02;;;;;;;14.93;5.72;;;10.70;93.90;;;;;;5051114;28;20029;-44
2022/05/22 05:17:28;;;;;;;16.02;6.38;;;10.80;94.00;;;;;;5050950;28;20467;-47
2022/05/22 05:19:53;;;;;;;9.45;5.05;;;10.90;94.10;;;;;;5051081;28;20032;-44
2022/05/22 05:22:19;;;;;;;11.35;5.38;;;10.90;94.10;;;;;;5050924;28;20037;-46
2022/05/22 05:24:45;;;;;;;15.05;6.45;;;11.00;94.00;;;;;;5051197;28;20091;-49
2022/05/22 05:27:15;;;;;;;20.92;6.43;;;11.20;94.20;;;;;;5050945;28;20124;-46
2022/05/22 05:29:41;;;;;;;14.68;6.90;;;11.40;93.60;;;;;;5050841;28;20435;-42
2022/05/22 05:32:07;;;;;;;14.55;6.95;;;11.60;93.50;;;;;;5050825;28;20099;-45
2022/05/22 05:34:33;;;;;;;14.85;7.07;;;11.70;92.90;;;;;;5050857;28;20155;-45
2022/05/22 05:36:59;;;;;;;12.80;6.10;;;11.90;92.90;;;;;;5043956;28;20049;-52
2022/05/22 05:39:27;;;;;;;12.75;5.25;;;11.90;92.60;;;;;;5031048;28;20033;-39
2022/05/22 05:41:55;;;;;;;13.18;5.50;;;11.90;92.60;;;;;;5030821;28;20490;-40
2022/05/22 05:44:21;;;;;;;12.65;6.05;;;12.10;92.50;;;;;;5030911;28;20026;-49
2022/05/22 05:46:47;;;;;;;7.88;4.55;;;12.40;92.50;;;;;;5030870;28;20441;-43
2022/05/22 05:49:13;;;;;;;10.02;3.92;;;12.90;91.60;;;;;;5030743;28;20049;-45
2022/05/22 05:51:39;;;;;;;8.95;3.78;;;13.60;90.50;;;;;;5030776;28;20108;-42
2022/05/22 05:54:05;;;;;;;8.25;4.68;;;14.50;90.00;;;;;;5030695;28;20108;-42
2022/05/22 05:56:31;;;;;;;8.75;4.35;;;15.50;85.60;;;;;;5030880;28;20087;-42
2022/05/22 05:58:57;;;;;;;13.75;5.15;;;16.40;77.30;;;;;;5030719;28;20433;-48
2022/05/22 06:01:24;;;;;;;9.93;4.80;;;17.10;74.40;;;;;;5030649;28;20026;-45
2022/05/22 06:03:51;;;;;;;12.80;5.75;;;17.80;73.50;;;;;;5030522;28;20036;-46
2022/05/22 06:06:17;;;;;;;13.80;6.80;;;18.70;70.90;;;;;;5030180;28;20025;-50
2022/05/22 06:08:43;;;;;;;12.05;6.00;;;19.40;68.00;;;;;;5050046;28;20021;-42
2022/05/22 06:11:09;;;;;;;13.43;5.68;;;20.00;66.00;;;;;;5048866;28;20055;-43
2022/05/22 06:13:35;;;;;;;11.35;5.35;;;20.40;66.20;;;;;;5050292;28;20051;-44
2022/05/22 06:16:04;;;;;;;12.43;5.40;;;21.10;63.60;;;;;;5050396;28;20124;-42
2022/05/22 06:18:30;;;;;;;13.05;5.50;;;21.60;61.70;;;;;;5053900;28;20029;-44
2022/05/22 06:20:56;;;;;;;9.88;5.15;;;21.80;60.50;;;;;;5054257;28;20496;-41
2022/05/22 06:23:21;;;;;;;9.35;5.13;;;21.70;60.90;;;;;;5054118;28;20527;-43
2022/05/22 06:25:47;;;;;;;10.82;5.07;;;21.80;60.60;;;;;;5054275;28;20134;-46
2022/05/22 06:28:17;;;;;;;13.73;5.18;;;21.90;59.20;;;;;;5045132;28;20018;-46
2022/05/22 06:30:43;;;;;;;14.35;5.53;;;22.30;59.50;;;;;;5033711;28;20482;-43
2022/05/22 06:33:12;;;;;;;11.45;4.97;;;22.80;58.40;;;;;;5034086;28;20498;-45
2022/05/22 06:35:46;;;;;;;11.85;4.97;;;23.20;56.10;;;;;;5034184;28;20033;-45
2022/05/22 06:39:49;;;;;;;12.10;5.47;;;23.50;55.60;;;;;;5034876;28;20108;-45
2022/05/22 06:40:58;;;;;;;10.82;4.80;;;23.30;55.30;;;;;;5033799;28;20032;-48
2022/05/22 06:43:24;;;;;;;10.68;4.90;;;23.40;57.20;;;;;;5033756;28;20026;-40
2022/05/22 06:45:51;;;;;;;10.18;4.40;;;23.40;57.30;;;;;;5033738;28;20091;-41
2022/05/22 06:48:20;;;;;;;13.07;5.00;;;23.60;55.20;;;;;;5033576;28;20099;-46
2022/05/22 06:50:45;;;;;;;11.48;5.05;;;23.60;57.60;;;;;;5032978;28;20037;-52
2022/05/22 06:53:11;;;;;;;10.50;4.60;;;23.60;57.70;;;;;;5025776;28;20021;-40
2022/05/22 06:55:36;;;;;;;13.48;4.85;;;23.70;56.40;;;;;;5013522;28;20504;-47
2022/05/22 06:58:02;;;;;;;11.57;4.60;;;23.90;55.30;;;;;;5014732;28;20032;-52
2022/05/22 07:00:29;;;;;;;9.02;3.92;;;24.30;56.10;;;;;;5032863;28;20036;-51
2022/05/22 07:02:55;;;;;;;12.10;4.88;;;24.70;54.00;;;;;;5033164;28;20087;-43
2022/05/22 07:05:21;;;;;;;11.70;4.38;;;24.60;56.00;;;;;;5032600;28;20049;-43
2022/05/22 07:07:47;;;;;;;11.57;4.20;;;24.80;55.80;;;;;;5034785;28;20032;-44
2022/05/22 07:10:14;;;;;;;15.68;4.85;;;24.90;54.70;;;;;;5032600;28;20433;-43
2022/05/22 07:12:40;;;;;;;13.30;4.38;;;24.70;54.90;;;;;;5032647;28;20026;-49
2022/05/22 07:15:06;;;;;;;11.48;4.30;;;24.90;53.10;;;;;;5032471;28;20025;-46
2022/05/22 07:17:32;;;;;;;13.32;4.78;;;25.10;53.80;;;;;;5033249;28;20029;-54
2022/05/22 07:19:58;;;;;;;12.30;4.55;;;25.20;50.80;;;;;;5033319;28;20026;-44
2022/05/22 07:22:24;;;;;;;10.30;4.10;;;25.10;53.50;;;;;;5033265;28;20417;-42
2022/05/22 07:24:51;;;;;;;12.68;4.32;;;25.40;51.70;;;;;;5033209;28;20032;-55
2022/05/22 07:27:17;;;;;;;11.20;4.10;;;25.80;52.60;;;;;;5032701;28;20101;-44
2022/05/22 07:29:43;;;;;;;10.95;3.70;;;25.80;53.60;;;;;;5032967;28;20042;-42
2022/05/22 07:32:09;;;;;;;10.45;3.63;;;26.00;53.40;;;;;;5033012;28;20018;-45
2022/05/22 07:34:35;;;;;;;14.55;4.18;;;26.20;50.00;;;;;;5032940;28;20281;-45
2022/05/22 07:37:05;;;;;;;15.63;4.18;;;25.80;51.30;;;;;;5033001;28;20470;-41
2022/05/22 07:39:31;;;;;;;10.85;3.50;;;26.00;49.90;;;;;;5052501;28;20501;-40
2022/05/22 07:41:56;;;;;;;11.95;4.30;;;26.20;51.00;;;;;;5052672;28;20033;-41
2022/05/22 07:44:22;;;;;;;10.63;3.70;;;26.50;53.10;;;;;;5052902;28;20021;-48
2022/05/22 07:46:48;;;;;;;11.82;3.78;;;26.60;52.00;;;;;;5052623;28;20444;-46
2022/05/22 07:52:16;;;;;;;12.50;3.40;;;26.00;49.30;;;;;;4990893;28;20032;-45
2022/05/22 07:54:42;;;;;;;9.40;3.17;;;25.80;47.80;;;;;;5039480;28;20044;-45
2022/05/22 07:57:08;;;;;;;11.43;3.80;;;26.40;47.40;;;;;;5052500;28;20083;-46
2022/05/22 07:59:38;;;;;;;11.27;3.15;;;26.20;49.70;;;;;;5052374;28;20416;-53
2022/05/22 08:02:06;;;;;;;13.90;3.53;;;26.80;50.30;;;;;;5052353;28;20035;-46
2022/05/22 08:04:32;;;;;;;9.27;3.13;;;26.70;49.20;;;;;;5052189;28;20039;-45
2022/05/22 08:06:57;;;;;;;11.25;2.92;;;26.90;47.00;;;;;;5049725;28;20033;-48
2022/05/22 08:09:23;;;;;;;8.57;2.90;;;27.30;48.40;;;;;;5032222;28;20037;-42
2022/05/22 08:11:49;;;;;;;10.50;3.30;;;27.30;50.50;;;;;;5032287;28;20038;-54
2022/05/22 08:14:15;;;;;;;10.32;2.72;;;27.70;47.80;;;;;;5032102;28;20501;-47
2022/05/22 08:16:42;;;;;;;9.88;2.70;;;27.90;45.60;;;;;;5032116;28;20386;-45
2022/05/22 08:19:08;;;;;;;8.63;2.53;;;28.10;47.40;;;;;;5032118;28;20075;-51
2022/05/22 08:21:33;;;;;;;11.68;3.17;;;28.10;45.40;;;;;;5031915;28;20060;-40
2022/05/22 08:23:59;;;;;;;11.50;3.25;;;27.80;44.50;;;;;;5032201;28;20025;-40
2022/05/22 08:26:26;;;;;;;9.77;2.47;;;27.90;48.70;;;;;;5031866;28;20029;-39
2022/05/22 08:28:51;;;;;;;10.18;2.90;;;28.10;45.60;;;;;;5031740;28;20025;-40
2022/05/22 08:31:17;;;;;;;9.25;2.53;;;28.20;41.80;;;;;;5031791;28;20030;-39
2022/05/22 08:33:43;;;;;;;9.80;2.75;;;28.10;39.40;;;;;;5031939;28;20029;-40
2022/05/22 08:36:09;;;;;;;9.82;2.42;;;27.60;44.30;;;;;;5031557;28;20029;-48
2022/05/22 08:38:35;;;;;;;8.90;2.33;;;28.00;48.40;;;;;;5046754;28;20017;-51
2022/05/22 08:41:27;;;;;;;10.35;2.70;;;27.90;42.70;;;;;;5051190;28;20063;-44
2022/05/22 08:44:02;;;;;;;9.90;2.50;;;28.00;48.10;;;;;;5051572;28;20025;-43
2022/05/22 08:46:35;;;;;;;10.73;2.30;;;28.30;42.70;;;;;;5051383;28;20073;-39
2022/05/22 08:49:21;;;;;;;8.80;2.45;;;27.90;46.90;;;;;;5031652;28;20501;-44
2022/05/22 08:51:52;;;;;;;8.65;2.03;;;28.30;47.80;;;;;;5032303;28;20052;-43
2022/05/22 08:54:31;;;;;;;7.88;2.00;;;28.90;46.60;;;;;;5051235;28;20033;-54
2022/05/22 08:59:48;;;;;;;10.18;2.33;;;29.00;42.10;;;;;;5030981;28;20399;-44
2022/05/22 09:02:36;;;;;;;9.73;2.40;;;27.80;37.60;;;;;;5031121;28;20048;-46
2022/05/22 09:05:07;;;;;;;8.52;2.35;;;27.50;43.50;;;;;;5029800;28;20061;-46
2022/05/22 09:07:52;;;;;;;10.75;2.40;;;27.90;44.70;;;;;;5027968;28;20033;-44
2022/05/22 09:10:24;;;;;;;8.68;2.15;;;28.50;42.20;;;;;;5030833;28;20506;-48
2022/05/22 09:13:05;;;;;;;9.40;2.35;;;28.10;42.70;;;;;;5038903;28;20052;-47
2022/05/22 09:15:49;;;;;;;9.43;2.25;;;28.50;43.20;;;;;;5045200;28;20029;-48
2022/05/22 09:18:27;;;;;;;8.60;2.38;;;29.00;40.60;;;;;;5026563;28;20064;-40
2022/05/22 09:21:06;;;;;;;8.77;2.75;;;29.40;45.60;;;;;;5030197;28;20536;-40
2022/05/22 09:23:46;;;;;;;8.73;2.42;;;29.90;46.10;;;;;;5033143;28;20037;-41
2022/05/22 09:26:21;;;;;;;11.07;2.70;;;30.20;45.70;;;;;;5030400;28;20037;-46
2022/05/22 09:28:55;;;;;;;8.85;2.45;;;30.30;41.90;;;;;;5048314;28;20429;-50
2022/05/22 09:31:39;;;;;;;9.55;2.45;;;30.30;40.10;;;;;;5050462;28;20104;-44
2022/05/22 09:34:29;;;;;;;9.07;2.33;;;29.90;41.60;;;;;;5010874;28;20351;-51
2022/05/22 09:37:22;;;;;;;6.63;2.00;;;29.70;38.80;;;;;;5016371;28;20060;-50
2022/05/22 09:40:15;;;;;;;9.50;2.50;;;29.90;41.70;;;;;;5028796;28;20026;-49
2022/05/22 09:42:59;;;;;;;10.80;2.22;;;30.10;40.30;;;;;;5039498;28;20458;-51
2022/05/22 09:45:49;;;;;;;8.02;2.00;;;29.60;40.20;;;;;;5024893;28;20046;-44
2022/05/22 09:48:54;;;;;;;6.40;1.98;;;28.10;37.00;;;;;;5025881;28;20514;-40
2022/05/22 09:51:22;;;;;;;11.25;1.98;;;28.50;38.60;;;;;;5007841;28;20247;-43
2022/05/22 09:53:57;;;;;;;7.88;2.10;;;28.70;37.60;;;;;;5031613;28;20111;-40
2022/05/22 09:56:41;;;;;;;8.85;2.38;;;28.70;41.50;;;;;;5033845;28;20084;-48
2022/05/22 09:59:31;;;;;;;8.02;2.17;;;28.70;43.60;;;;;;5033921;28;20044;-48
2022/05/22 10:02:02;;;;;;;8.10;1.80;;;28.70;43.00;;;;;;5023794;28;20033;-46
2022/05/22 10:04:54;;;;;;;5.47;1.92;;;28.40;44.30;;;;;;5026090;28;20545;-43
2022/05/22 10:07:48;;;;;;;6.90;1.77;;;28.30;41.50;;;;;;5029254;28;20041;-47
2022/05/22 10:10:42;;;;;;;9.38;2.25;;;27.50;43.30;;;;;;5014739;28;20034;-48
2022/05/22 10:13:18;;;;;;;9.63;2.50;;;27.40;43.30;;;;;;5018843;28;20033;-45
2022/05/22 10:16:07;;;;;;;6.82;2.10;;;27.90;42.70;;;;;;5023150;28;20030;-44
2022/05/22 10:18:49;;;;;;;8.75;2.47;;;28.10;45.50;;;;;;5025058;28;20096;-52
2022/05/22 10:21:23;;;;;;;9.73;2.00;;;28.10;45.70;;;;;;5034204;28;20030;-55
2022/05/22 10:23:54;;;;;;;9.40;2.08;;;27.90;39.30;;;;;;5034312;28;20029;-52
2022/05/22 10:26:42;;;;;;;7.85;1.98;;;27.20;40.30;;;;;;5023789;28;20065;-51
2022/05/22 10:29:25;;;;;;;8.02;2.20;;;26.90;43.20;;;;;;5014638;28;20033;-47
2022/05/22 10:32:03;;;;;;;6.95;2.38;;;27.50;43.80;;;;;;5014343;28;20022;-42
2022/05/22 10:34:39;;;;;;;9.07;2.00;;;27.80;45.60;;;;;;5034800;28;20460;-43
2022/05/22 10:37:23;;;;;;;7.72;1.63;;;28.10;45.50;;;;;;5033683;28;20017;-41
2022/05/22 10:39:49;;;;;;;7.25;2.20;;;28.20;41.90;;;;;;5026068;28;20026;-43
2022/05/22 10:42:49;;;;;;;7.43;1.80;;;28.10;45.40;;;;;;5021846;28;20022;-43
2022/05/22 10:45:21;;;;;;;9.15;2.13;;;28.00;44.70;;;;;;5021716;28;20053;-42
2022/05/22 10:47:49;;;;;;;10.35;2.20;;;28.10;41.60;;;;;;5029725;28;20066;-43
2022/05/22 10:50:27;;;;;;;8.00;1.77;;;28.20;40.70;;;;;;5027515;28;20029;-53
2022/05/22 10:52:53;;;;;;;8.38;1.92;;;28.10;41.70;;;;;;5029128;28;20116;-50
2022/05/22 10:55:30;;;;;;;7.72;1.65;;;28.10;42.80;;;;;;5024987;28;20033;-45
2022/05/22 10:57:59;;;;;;;8.25;1.85;;;28.00;39.40;;;;;;5015968;28;20026;-43
2022/05/22 11:00:26;;;;;;;7.35;1.60;;;27.70;40.20;;;;;;5015880;28;20022;-43
2022/05/22 11:02:53;;;;;;;7.30;1.50;;;27.20;39.60;;;;;;5014957;28;20385;-45
2022/05/22 11:05:24;;;;;;;6.03;1.67;;;27.20;41.00;;;;;;5013692;28;20101;-43
2022/05/22 11:07:52;;;;;;;9.10;2.13;;;27.20;42.60;;;;;;5016105;28;20030;-49
2022/05/22 11:10:35;;;;;;;7.60;1.70;;;27.20;42.30;;;;;;5029728;28;20021;-45
2022/05/22 11:13:06;;;;;;;6.53;1.73;;;27.20;44.00;;;;;;5033102;28;20018;-41
2022/05/22 11:15:37;;;;;;;4.88;1.25;;;27.20;41.80;;;;;;5032424;28;20030;-48
2022/05/22 11:18:09;;;;;;;6.80;1.60;;;27.10;38.60;;;;;;5032813;28;20029;-46
2022/05/22 11:20:40;;;;;;;8.13;1.35;;;26.90;42.70;;;;;;5032931;28;20183;-42
2022/05/22 11:23:18;;;;;;;6.45;1.80;;;27.10;40.50;;;;;;5032984;28;20029;-42
2022/05/22 11:25:56;;;;;;;5.68;1.42;;;27.00;41.20;;;;;;5029650;28;20410;-44
2022/05/22 11:28:41;;;;;;;9.15;1.88;;;27.10;42.00;;;;;;5027857;28;20026;-46
2022/05/22 11:31:34;;;;;;;5.60;1.60;;;27.20;44.10;;;;;;5028122;28;20075;-46
2022/05/22 11:34:03;;;;;;;5.20;1.17;;;27.30;42.70;;;;;;5033495;28;20105;-41
2022/05/22 11:36:44;;;;;;;7.03;1.30;;;27.10;37.90;;;;;;5032632;28;20037;-40
2022/05/22 11:39:44;;;;;;;2.25;0.90;;;26.90;41.40;;;;;;5031958;28;20100;-40
2022/05/22 11:42:35;;;;;;;5.25;1.35;;;27.10;41.10;;;;;;5030459;28;20144;-41
2022/05/22 11:45:10;;;;;;;4.45;1.10;;;27.00;40.20;;;;;;5030350;28;20509;-46
2022/05/22 11:47:50;;;;;;;4.20;0.90;;;27.10;40.40;;;;;;5026042;28;20077;-48
2022/05/22 11:50:54;;;;;;;7.45;1.17;;;26.80;41.20;;;;;;5029718;28;20029;-44
2022/05/22 11:53:34;;;;;;;3.72;1.02;;;26.70;39.20;;;;;;5013304;28;20032;-41
2022/05/22 11:56:18;;;;;;;3.88;1.02;;;26.70;38.00;;;;;;5029503;28;20359;-50
2022/05/22 11:59:06;;;;;;;3.45;1.00;;;26.60;39.50;;;;;;5029576;28;20053;-50
2022/05/22 12:01:37;;;;;;;4.43;0.82;;;26.10;34.90;;;;;;5018824;28;20179;-53
2022/05/22 12:04:24;;;;;;;2.60;0.80;;;26.20;44.00;;;;;;5029252;28;20602;-55
2022/05/22 12:07:28;;;;;;;5.03;1.00;;;26.30;36.00;;;;;;5021847;28;20112;-42
2022/05/22 12:10:12;;;;;;;5.22;0.85;;;26.10;34.20;;;;;;5019077;28;20520;-51
2022/05/22 12:12:46;;;;;;;2.78;0.65;;;26.10;36.90;;;;;;5013610;28;20505;-45
2022/05/22 12:15:17;;;;;;;3.08;0.70;;;26.10;36.50;;;;;;5012959;28;20550;-51
2022/05/22 12:17:55;;;;;;;2.08;0.80;;;25.90;36.20;;;;;;5011909;28;20036;-50
2022/05/22 12:20:29;;;;;;;2.00;0.68;;;25.60;37.20;;;;;;5010841;28;20398;-44
2022/05/22 12:23:14;;;;;;;2.47;0.60;;;25.40;40.00;;;;;;5009051;28;20117;-52
2022/05/22 12:25:54;;;;;;;4.53;0.90;;;25.30;36.50;;;;;;5011370;28;20029;-45
2022/05/22 12:28:31;;;;;;;2.90;0.82;;;25.30;35.60;;;;;;5024730;28;20112;-50
2022/05/22 12:30:58;;;;;;;2.58;0.73;;;25.20;37.80;;;;;;5036448;28;20496;-45
2022/05/22 12:33:27;;;;;;;9.18;0.85;;;25.20;31.60;;;;;;5021740;28;20045;-45
2022/05/22 12:35:54;;;;;;;3.03;0.60;;;25.20;36.90;;;;;;5017018;28;20045;-56
2022/05/22 12:38:19;;;;;;;2.28;0.80;;;25.10;34.80;;;;;;5011145;28;20144;-48
2022/05/22 12:41:04;;;;;;;1.98;0.43;;;25.10;37.50;;;;;;5011124;28;20120;-39
2022/05/22 12:43:30;;;;;;;3.95;0.90;;;25.40;36.30;;;;;;5016993;28;20420;-50
2022/05/22 12:46:01;;;;;;;2.05;0.60;;;25.30;39.40;;;;;;5015934;28;20092;-47
2022/05/22 12:48:43;;;;;;;3.30;0.98;;;25.30;38.10;;;;;;5021351;28;20041;-45
2022/05/22 12:51:08;;;;;;;3.58;0.82;;;25.20;40.40;;;;;;5019333;28;20044;-50
2022/05/22 12:53:36;;;;;;;3.92;0.80;;;25.00;39.70;;;;;;5022875;28;20037;-49
2022/05/22 12:56:27;;;;;;;3.27;0.77;;;24.90;39.90;;;;;;5014014;28;20022;-47
2022/05/22 12:59:02;;;;;;;2.17;0.60;;;25.00;40.60;;;;;;5030835;28;20561;-50
2022/05/22 13:01:39;;;;;;;3.00;0.85;;;25.00;39.90;;;;;;5022451;28;20041;-47
2022/05/22 13:04:20;;;;;;;3.85;0.80;;;25.00;38.80;;;;;;5031700;28;20025;-50
2022/05/22 13:06:51;;;;;;;3.13;0.77;;;24.80;40.90;;;;;;5030571;28;20041;-42
2022/05/22 13:09:36;;;;;;;2.72;0.90;;;24.90;42.30;;;;;;5031708;28;20037;-42